sensor_id;sensor_type;location;lat;lon;timestamp;P1;durP1;ratioP1;P2;durP2;ratioP2
53269;SDS011;39159;45.634;9.420;2022-10-26T00:01:17;13.45;;;7.13;;
53269;SDS011;39159;45.634;9.420;2022-10-26T00:03:44;9.15;;;6.22;;
53269;SDS011;39159;45.634;9.420;2022-10-26T00:06:17;15.30;;;6.75;;
53269;SDS011;39159;45.634;9.420;2022-10-26T00:08:45;17.33;;;7.22;;
53269;SDS011;39159;45.634;9.420;2022-10-26T00:11:11;14.80;;;7.40;;
53269;SDS011;39159;45.634;9.420;2022-10-26T00:13:38;14.45;;;7.65;;
53269;SDS011;39159;45.634;9.420;2022-10-26T00:16:08;16.75;;;8.13;;
53269;SDS011;39159;45.634;9.420;2022-10-26T00:18:34;16.80;;;7.65;;
53269;SDS011;39159;45.634;9.420;2022-10-26T00:21:03;21.52;;;7.65;;
53269;SDS011;39159;45.634;9.420;2022-10-26T00:23:30;17.88;;;6.85;;
53269;SDS011;39159;45.634;9.420;2022-10-26T00:25:55;18.40;;;8.88;;
53269;SDS011;39159;45.634;9.420;2022-10-26T00:28:21;12.48;;;6.65;;
53269;SDS011;39159;45.634;9.420;2022-10-26T00:30:47;12.63;;;6.97;;
53269;SDS011;39159;45.634;9.420;2022-10-26T00:33:12;19.85;;;7.28;;
53269;SDS011;39159;45.634;9.420;2022-10-26T00:35:38;13.88;;;6.70;;
53269;SDS011;39159;45.634;9.420;2022-10-26T00:38:03;15.25;;;6.82;;
53269;SDS011;39159;45.634;9.420;2022-10-26T00:40:29;13.40;;;6.60;;
53269;SDS011;39159;45.634;9.420;2022-10-26T00:42:54;17.52;;;6.88;;
53269;SDS011;39159;45.634;9.420;2022-10-26T00:45:25;10.95;;;6.75;;
53269;SDS011;39159;45.634;9.420;2022-10-26T00:47:52;14.40;;;6.35;;
53269;SDS011;39159;45.634;9.420;2022-10-26T00:50:43;17.85;;;7.13;;
53269;SDS011;39159;45.634;9.420;2022-10-26T00:53:09;14.50;;;6.63;;
53269;SDS011;39159;45.634;9.420;2022-10-26T00:55:36;15.00;;;6.00;;
53269;SDS011;39159;45.634;9.420;2022-10-26T00:58:05;13.77;;;5.82;;
53269;SDS011;39159;45.634;9.420;2022-10-26T01:00:32;11.45;;;5.70;;
53269;SDS011;39159;45.634;9.420;2022-10-26T01:02:59;12.07;;;5.63;;
53269;SDS011;39159;45.634;9.420;2022-10-26T01:05:28;11.80;;;6.10;;
53269;SDS011;39159;45.634;9.420;2022-10-26T01:07:54;12.88;;;6.43;;
53269;SDS011;39159;45.634;9.420;2022-10-26T01:10:21;15.27;;;5.82;;
53269;SDS011;39159;45.634;9.420;2022-10-26T01:12:46;12.65;;;6.10;;
53269;SDS011;39159;45.634;9.420;2022-10-26T01:15:13;12.02;;;5.88;;
53269;SDS011;39159;45.634;9.420;2022-10-26T01:17:54;12.60;;;6.50;;
53269;SDS011;39159;45.634;9.420;2022-10-26T01:23:06;16.13;;;6.43;;
53269;SDS011;39159;45.634;9.420;2022-10-26T01:26:13;14.73;;;6.55;;
53269;SDS011;39159;45.634;9.420;2022-10-26T01:31:44;12.40;;;6.45;;
53269;SDS011;39159;45.634;9.420;2022-10-26T01:34:21;11.40;;;5.65;;
53269;SDS011;39159;45.634;9.420;2022-10-26T01:37:05;12.65;;;5.80;;
53269;SDS011;39159;45.634;9.420;2022-10-26T01:39:36;13.23;;;5.90;;
53269;SDS011;39159;45.634;9.420;2022-10-26T01:42:05;15.10;;;7.07;;
53269;SDS011;39159;45.634;9.420;2022-10-26T01:44:35;15.50;;;7.22;;
53269;SDS011;39159;45.634;9.420;2022-10-26T01:49:33;15.00;;;6.63;;
53269;SDS011;39159;45.634;9.420;2022-10-26T01:52:02;11.77;;;6.05;;
53269;SDS011;39159;45.634;9.420;2022-10-26T01:54:27;13.38;;;6.03;;
53269;SDS011;39159;45.634;9.420;2022-10-26T01:56:54;13.52;;;5.45;;
53269;SDS011;39159;45.634;9.420;2022-10-26T02:10:03;14.32;;;6.00;;
53269;SDS011;39159;45.634;9.420;2022-10-26T02:15:14;9.77;;;5.53;;
53269;SDS011;39159;45.634;9.420;2022-10-26T02:20:29;16.92;;;7.32;;
53269;SDS011;39159;45.634;9.420;2022-10-26T02:23:03;11.57;;;6.20;;
53269;SDS011;39159;45.634;9.420;2022-10-26T02:25:32;14.95;;;7.35;;
53269;SDS011;39159;45.634;9.420;2022-10-26T02:28:02;14.13;;;5.55;;
53269;SDS011;39159;45.634;9.420;2022-10-26T02:30:32;14.13;;;6.05;;
53269;SDS011;39159;45.634;9.420;2022-10-26T02:32:59;15.40;;;6.55;;
53269;SDS011;39159;45.634;9.420;2022-10-26T02:35:31;14.15;;;6.43;;
53269;SDS011;39159;45.634;9.420;2022-10-26T02:38:00;11.23;;;6.13;;
53269;SDS011;39159;45.634;9.420;2022-10-26T02:40:29;13.50;;;6.68;;
53269;SDS011;39159;45.634;9.420;2022-10-26T02:42:58;17.65;;;7.38;;
53269;SDS011;39159;45.634;9.420;2022-10-26T02:45:27;18.20;;;6.68;;
53269;SDS011;39159;45.634;9.420;2022-10-26T02:47:57;18.63;;;7.60;;
53269;SDS011;39159;45.634;9.420;2022-10-26T02:50:26;14.27;;;6.80;;
53269;SDS011;39159;45.634;9.420;2022-10-26T02:53:06;14.75;;;6.50;;
53269;SDS011;39159;45.634;9.420;2022-10-26T02:55:52;12.00;;;6.25;;
53269;SDS011;39159;45.634;9.420;2022-10-26T02:58:27;12.13;;;5.93;;
53269;SDS011;39159;45.634;9.420;2022-10-26T03:00:55;13.10;;;5.93;;
53269;SDS011;39159;45.634;9.420;2022-10-26T03:03:21;15.15;;;6.50;;
53269;SDS011;39159;45.634;9.420;2022-10-26T03:05:47;14.40;;;6.57;;
53269;SDS011;39159;45.634;9.420;2022-10-26T03:08:13;9.93;;;5.85;;
53269;SDS011;39159;45.634;9.420;2022-10-26T03:10:39;16.55;;;6.40;;
53269;SDS011;39159;45.634;9.420;2022-10-26T03:13:07;18.73;;;6.72;;
53269;SDS011;39159;45.634;9.420;2022-10-26T03:15:34;14.43;;;6.60;;
53269;SDS011;39159;45.634;9.420;2022-10-26T03:18:00;22.15;;;6.25;;
53269;SDS011;39159;45.634;9.420;2022-10-26T03:20:26;12.25;;;5.75;;
53269;SDS011;39159;45.634;9.420;2022-10-26T03:22:51;11.38;;;5.38;;
53269;SDS011;39159;45.634;9.420;2022-10-26T03:25:17;11.07;;;5.88;;
53269;SDS011;39159;45.634;9.420;2022-10-26T03:27:43;9.48;;;5.22;;
53269;SDS011;39159;45.634;9.420;2022-10-26T03:30:08;12.30;;;5.47;;
53269;SDS011;39159;45.634;9.420;2022-10-26T03:32:34;10.18;;;5.60;;
53269;SDS011;39159;45.634;9.420;2022-10-26T03:35:00;11.25;;;4.93;;
53269;SDS011;39159;45.634;9.420;2022-10-26T03:37:25;10.25;;;5.10;;
53269;SDS011;39159;45.634;9.420;2022-10-26T03:39:51;13.25;;;5.55;;
53269;SDS011;39159;45.634;9.420;2022-10-26T03:42:16;8.90;;;5.00;;
53269;SDS011;39159;45.634;9.420;2022-10-26T03:44:42;13.18;;;4.95;;
53269;SDS011;39159;45.634;9.420;2022-10-26T03:47:07;9.05;;;4.20;;
53269;SDS011;39159;45.634;9.420;2022-10-26T03:49:33;12.65;;;4.85;;
53269;SDS011;39159;45.634;9.420;2022-10-26T03:52:00;11.85;;;5.53;;
53269;SDS011;39159;45.634;9.420;2022-10-26T03:54:25;9.63;;;5.18;;
53269;SDS011;39159;45.634;9.420;2022-10-26T03:56:51;11.07;;;5.82;;
53269;SDS011;39159;45.634;9.420;2022-10-26T03:59:17;10.60;;;5.35;;
53269;SDS011;39159;45.634;9.420;2022-10-26T04:01:42;10.60;;;5.68;;
53269;SDS011;39159;45.634;9.420;2022-10-26T04:04:08;8.98;;;5.65;;
53269;SDS011;39159;45.634;9.420;2022-10-26T04:06:33;11.98;;;5.88;;
53269;SDS011;39159;45.634;9.420;2022-10-26T04:08:59;11.55;;;5.45;;
53269;SDS011;39159;45.634;9.420;2022-10-26T04:11:27;14.13;;;5.30;;
53269;SDS011;39159;45.634;9.420;2022-10-26T04:13:53;12.32;;;6.05;;
53269;SDS011;39159;45.634;9.420;2022-10-26T04:16:19;11.57;;;5.70;;
53269;SDS011;39159;45.634;9.420;2022-10-26T04:18:45;16.20;;;6.57;;
53269;SDS011;39159;45.634;9.420;2022-10-26T04:21:11;11.57;;;5.70;;
53269;SDS011;39159;45.634;9.420;2022-10-26T04:23:37;11.68;;;5.75;;
53269;SDS011;39159;45.634;9.420;2022-10-26T04:26:05;12.63;;;5.50;;
53269;SDS011;39159;45.634;9.420;2022-10-26T04:28:31;14.25;;;5.47;;
53269;SDS011;39159;45.634;9.420;2022-10-26T04:30:56;12.35;;;5.60;;
53269;SDS011;39159;45.634;9.420;2022-10-26T04:33:22;10.30;;;5.38;;
53269;SDS011;39159;45.634;9.420;2022-10-26T04:35:47;11.10;;;6.28;;
53269;SDS011;39159;45.634;9.420;2022-10-26T04:38:13;10.48;;;5.70;;
53269;SDS011;39159;45.634;9.420;2022-10-26T04:40:38;10.88;;;5.07;;
53269;SDS011;39159;45.634;9.420;2022-10-26T04:43:03;12.98;;;5.20;;
53269;SDS011;39159;45.634;9.420;2022-10-26T04:45:29;12.10;;;4.80;;
53269;SDS011;39159;45.634;9.420;2022-10-26T04:48:05;10.15;;;4.80;;
53269;SDS011;39159;45.634;9.420;2022-10-26T04:50:32;10.70;;;4.93;;
53269;SDS011;39159;45.634;9.420;2022-10-26T04:52:58;9.23;;;3.78;;
53269;SDS011;39159;45.634;9.420;2022-10-26T04:55:23;12.00;;;4.00;;
53269;SDS011;39159;45.634;9.420;2022-10-26T04:57:49;7.00;;;4.05;;
53269;SDS011;39159;45.634;9.420;2022-10-26T05:00:14;8.43;;;4.05;;
53269;SDS011;39159;45.634;9.420;2022-10-26T05:02:40;11.20;;;4.50;;
53269;SDS011;39159;45.634;9.420;2022-10-26T05:05:05;10.77;;;4.53;;
53269;SDS011;39159;45.634;9.420;2022-10-26T05:07:31;11.93;;;4.50;;
53269;SDS011;39159;45.634;9.420;2022-10-26T05:09:57;9.45;;;4.18;;
53269;SDS011;39159;45.634;9.420;2022-10-26T05:12:22;9.73;;;4.82;;
53269;SDS011;39159;45.634;9.420;2022-10-26T05:14:48;8.70;;;4.60;;
53269;SDS011;39159;45.634;9.420;2022-10-26T05:17:14;10.35;;;4.32;;
53269;SDS011;39159;45.634;9.420;2022-10-26T05:19:39;10.38;;;5.03;;
53269;SDS011;39159;45.634;9.420;2022-10-26T05:22:05;10.13;;;5.10;;
53269;SDS011;39159;45.634;9.420;2022-10-26T05:24:31;9.10;;;4.57;;
53269;SDS011;39159;45.634;9.420;2022-10-26T05:26:56;12.90;;;4.63;;
53269;SDS011;39159;45.634;9.420;2022-10-26T05:29:22;8.45;;;4.43;;
53269;SDS011;39159;45.634;9.420;2022-10-26T05:31:47;9.20;;;4.68;;
53269;SDS011;39159;45.634;9.420;2022-10-26T05:34:12;13.55;;;4.95;;
53269;SDS011;39159;45.634;9.420;2022-10-26T05:36:38;13.63;;;5.35;;
53269;SDS011;39159;45.634;9.420;2022-10-26T05:39:03;22.67;;;5.35;;
53269;SDS011;39159;45.634;9.420;2022-10-26T05:41:29;11.50;;;5.20;;
53269;SDS011;39159;45.634;9.420;2022-10-26T05:43:54;10.45;;;4.82;;
53269;SDS011;39159;45.634;9.420;2022-10-26T05:46:20;20.75;;;5.50;;
53269;SDS011;39159;45.634;9.420;2022-10-26T05:48:45;12.95;;;5.25;;
53269;SDS011;39159;45.634;9.420;2022-10-26T05:51:11;10.38;;;5.80;;
53269;SDS011;39159;45.634;9.420;2022-10-26T05:53:36;12.80;;;4.80;;
53269;SDS011;39159;45.634;9.420;2022-10-26T05:56:02;11.13;;;5.03;;
53269;SDS011;39159;45.634;9.420;2022-10-26T05:58:40;11.98;;;5.18;;
53269;SDS011;39159;45.634;9.420;2022-10-26T06:06:32;15.43;;;5.43;;
53269;SDS011;39159;45.634;9.420;2022-10-26T06:09:03;12.55;;;4.82;;
53269;SDS011;39159;45.634;9.420;2022-10-26T06:11:28;15.52;;;5.18;;
53269;SDS011;39159;45.634;9.420;2022-10-26T06:13:54;11.43;;;5.03;;
53269;SDS011;39159;45.634;9.420;2022-10-26T06:30:28;11.45;;;4.28;;
53269;SDS011;39159;45.634;9.420;2022-10-26T06:32:53;12.98;;;4.63;;
53269;SDS011;39159;45.634;9.420;2022-10-26T06:35:26;17.50;;;5.10;;
53269;SDS011;39159;45.634;9.420;2022-10-26T06:38:02;6.53;;;4.40;;
53269;SDS011;39159;45.634;9.420;2022-10-26T06:40:31;9.75;;;4.63;;
53269;SDS011;39159;45.634;9.420;2022-10-26T06:43:00;12.20;;;4.60;;
53269;SDS011;39159;45.634;9.420;2022-10-26T06:45:27;9.60;;;4.90;;
53269;SDS011;39159;45.634;9.420;2022-10-26T06:48:13;7.35;;;4.35;;
53269;SDS011;39159;45.634;9.420;2022-10-26T06:50:51;10.93;;;4.97;;
53269;SDS011;39159;45.634;9.420;2022-10-26T06:55:44;9.20;;;4.00;;
53269;SDS011;39159;45.634;9.420;2022-10-26T06:58:13;7.50;;;4.50;;
53269;SDS011;39159;45.634;9.420;2022-10-26T07:00:42;7.15;;;3.90;;
53269;SDS011;39159;45.634;9.420;2022-10-26T07:03:09;12.23;;;4.05;;
53269;SDS011;39159;45.634;9.420;2022-10-26T07:05:34;10.02;;;4.20;;
53269;SDS011;39159;45.634;9.420;2022-10-26T07:08:00;10.23;;;3.85;;
53269;SDS011;39159;45.634;9.420;2022-10-26T07:10:25;8.95;;;3.75;;
53269;SDS011;39159;45.634;9.420;2022-10-26T07:12:51;7.50;;;3.88;;
53269;SDS011;39159;45.634;9.420;2022-10-26T07:15:16;11.38;;;4.18;;
53269;SDS011;39159;45.634;9.420;2022-10-26T07:17:42;10.00;;;4.00;;
53269;SDS011;39159;45.634;9.420;2022-10-26T07:20:12;20.63;;;4.35;;
53269;SDS011;39159;45.634;9.420;2022-10-26T07:22:42;7.60;;;4.10;;
53269;SDS011;39159;45.634;9.420;2022-10-26T07:25:08;15.50;;;3.95;;
53269;SDS011;39159;45.634;9.420;2022-10-26T07:27:34;18.75;;;5.13;;
53269;SDS011;39159;45.634;9.420;2022-10-26T07:29:59;11.50;;;4.45;;
53269;SDS011;39159;45.634;9.420;2022-10-26T07:32:25;12.18;;;4.00;;
53269;SDS011;39159;45.634;9.420;2022-10-26T07:34:50;9.35;;;4.07;;
53269;SDS011;39159;45.634;9.420;2022-10-26T07:37:16;8.65;;;4.53;;
53269;SDS011;39159;45.634;9.420;2022-10-26T07:39:41;18.67;;;4.38;;
53269;SDS011;39159;45.634;9.420;2022-10-26T07:42:07;13.32;;;3.92;;
53269;SDS011;39159;45.634;9.420;2022-10-26T07:44:33;12.55;;;4.32;;
53269;SDS011;39159;45.634;9.420;2022-10-26T07:46:59;14.15;;;4.05;;
53269;SDS011;39159;45.634;9.420;2022-10-26T07:49:24;9.65;;;4.68;;
53269;SDS011;39159;45.634;9.420;2022-10-26T07:51:50;15.43;;;3.88;;
53269;SDS011;39159;45.634;9.420;2022-10-26T07:54:15;14.05;;;4.63;;
53269;SDS011;39159;45.634;9.420;2022-10-26T07:56:41;9.98;;;4.22;;
53269;SDS011;39159;45.634;9.420;2022-10-26T07:59:06;19.08;;;5.10;;
53269;SDS011;39159;45.634;9.420;2022-10-26T08:01:32;17.92;;;4.57;;
53269;SDS011;39159;45.634;9.420;2022-10-26T08:03:57;19.17;;;4.20;;
53269;SDS011;39159;45.634;9.420;2022-10-26T08:06:23;11.73;;;4.35;;
53269;SDS011;39159;45.634;9.420;2022-10-26T08:08:48;10.95;;;3.65;;
53269;SDS011;39159;45.634;9.420;2022-10-26T08:11:14;15.60;;;4.57;;
53269;SDS011;39159;45.634;9.420;2022-10-26T08:13:41;10.13;;;3.97;;
53269;SDS011;39159;45.634;9.420;2022-10-26T08:16:06;9.70;;;3.90;;
53269;SDS011;39159;45.634;9.420;2022-10-26T08:18:32;7.60;;;3.83;;
53269;SDS011;39159;45.634;9.420;2022-10-26T08:21:02;8.98;;;3.92;;
53269;SDS011;39159;45.634;9.420;2022-10-26T08:23:33;8.75;;;3.72;;
53269;SDS011;39159;45.634;9.420;2022-10-26T08:25:59;8.55;;;4.00;;
53269;SDS011;39159;45.634;9.420;2022-10-26T08:28:26;8.82;;;4.13;;
53269;SDS011;39159;45.634;9.420;2022-10-26T08:30:53;6.63;;;3.28;;
53269;SDS011;39159;45.634;9.420;2022-10-26T08:33:18;7.60;;;3.90;;
53269;SDS011;39159;45.634;9.420;2022-10-26T08:35:44;11.48;;;4.47;;
53269;SDS011;39159;45.634;9.420;2022-10-26T08:38:09;9.32;;;4.00;;
53269;SDS011;39159;45.634;9.420;2022-10-26T08:40:36;16.48;;;4.32;;
53269;SDS011;39159;45.634;9.420;2022-10-26T08:43:15;10.50;;;5.03;;
53269;SDS011;39159;45.634;9.420;2022-10-26T08:45:48;9.32;;;4.43;;
53269;SDS011;39159;45.634;9.420;2022-10-26T08:48:25;12.97;;;4.77;;
53269;SDS011;39159;45.634;9.420;2022-10-26T08:50:57;12.32;;;5.13;;
53269;SDS011;39159;45.634;9.420;2022-10-26T08:56:04;15.07;;;6.75;;
53269;SDS011;39159;45.634;9.420;2022-10-26T08:58:39;19.85;;;6.78;;
53269;SDS011;39159;45.634;9.420;2022-10-26T09:01:11;14.80;;;6.60;;
53269;SDS011;39159;45.634;9.420;2022-10-26T09:03:36;17.23;;;9.27;;
53269;SDS011;39159;45.634;9.420;2022-10-26T09:06:11;20.27;;;8.20;;
53269;SDS011;39159;45.634;9.420;2022-10-26T09:16:34;17.95;;;8.20;;
53269;SDS011;39159;45.634;9.420;2022-10-26T09:19:49;17.63;;;8.38;;
53269;SDS011;39159;45.634;9.420;2022-10-26T09:25:26;17.70;;;8.35;;
53269;SDS011;39159;45.634;9.420;2022-10-26T09:28:00;18.90;;;9.45;;
53269;SDS011;39159;45.634;9.420;2022-10-26T09:30:26;22.15;;;10.48;;
53269;SDS011;39159;45.634;9.420;2022-10-26T09:32:55;15.73;;;9.27;;
53269;SDS011;39159;45.634;9.420;2022-10-26T09:35:24;25.83;;;11.13;;
53269;SDS011;39159;45.634;9.420;2022-10-26T09:38:05;22.63;;;10.07;;
53269;SDS011;39159;45.634;9.420;2022-10-26T09:40:40;24.17;;;11.95;;
53269;SDS011;39159;45.634;9.420;2022-10-26T09:45:45;24.45;;;11.13;;
53269;SDS011;39159;45.634;9.420;2022-10-26T09:48:26;25.77;;;11.85;;
53269;SDS011;39159;45.634;9.420;2022-10-26T09:51:08;24.42;;;13.38;;
53269;SDS011;39159;45.634;9.420;2022-10-26T09:53:35;19.52;;;11.48;;
53269;SDS011;39159;45.634;9.420;2022-10-26T09:56:04;21.98;;;12.18;;
53269;SDS011;39159;45.634;9.420;2022-10-26T09:58:40;21.85;;;12.40;;
53269;SDS011;39159;45.634;9.420;2022-10-26T10:06:37;20.95;;;12.00;;
53269;SDS011;39159;45.634;9.420;2022-10-26T10:09:10;22.95;;;12.80;;
53269;SDS011;39159;45.634;9.420;2022-10-26T10:14:27;20.20;;;12.18;;
53269;SDS011;39159;45.634;9.420;2022-10-26T10:17:00;18.88;;;12.35;;
53269;SDS011;39159;45.634;9.420;2022-10-26T10:19:31;22.65;;;11.55;;
53269;SDS011;39159;45.634;9.420;2022-10-26T10:22:00;21.95;;;11.15;;
53269;SDS011;39159;45.634;9.420;2022-10-26T10:24:34;23.55;;;11.45;;
53269;SDS011;39159;45.634;9.420;2022-10-26T10:29:57;21.70;;;10.90;;
53269;SDS011;39159;45.634;9.420;2022-10-26T10:32:27;22.55;;;13.20;;
53269;SDS011;39159;45.634;9.420;2022-10-26T10:34:56;33.67;;;14.77;;
53269;SDS011;39159;45.634;9.420;2022-10-26T10:39:55;26.08;;;12.18;;
53269;SDS011;39159;45.634;9.420;2022-10-26T10:42:24;21.00;;;11.00;;
53269;SDS011;39159;45.634;9.420;2022-10-26T10:47:31;21.83;;;11.77;;
53269;SDS011;39159;45.634;9.420;2022-10-26T10:50:03;18.10;;;10.98;;
53269;SDS011;39159;45.634;9.420;2022-10-26T10:52:33;24.67;;;10.77;;
53269;SDS011;39159;45.634;9.420;2022-10-26T10:58:41;18.80;;;10.02;;
53269;SDS011;39159;45.634;9.420;2022-10-26T11:00:37;23.40;;;12.73;;
53269;SDS011;39159;45.634;9.420;2022-10-26T11:11:22;30.70;;;14.43;;
53269;SDS011;39159;45.634;9.420;2022-10-26T11:16:28;27.17;;;12.65;;
53269;SDS011;39159;45.634;9.420;2022-10-26T11:19:05;19.75;;;12.77;;
53269;SDS011;39159;45.634;9.420;2022-10-26T11:21:40;25.15;;;13.63;;
53269;SDS011;39159;45.634;9.420;2022-10-26T11:24:27;27.52;;;14.68;;
53269;SDS011;39159;45.634;9.420;2022-10-26T11:27:14;22.10;;;12.90;;
53269;SDS011;39159;45.634;9.420;2022-10-26T11:29:49;23.88;;;12.82;;
53269;SDS011;39159;45.634;9.420;2022-10-26T11:32:19;23.05;;;11.88;;
53269;SDS011;39159;45.634;9.420;2022-10-26T11:37:24;25.75;;;12.93;;
53269;SDS011;39159;45.634;9.420;2022-10-26T11:42:49;24.05;;;14.40;;
53269;SDS011;39159;45.634;9.420;2022-10-26T11:45:25;25.67;;;13.07;;
53269;SDS011;39159;45.634;9.420;2022-10-26T11:50:53;25.48;;;12.27;;
53269;SDS011;39159;45.634;9.420;2022-10-26T11:53:34;29.23;;;15.20;;
53269;SDS011;39159;45.634;9.420;2022-10-26T11:56:03;21.70;;;12.98;;
53269;SDS011;39159;45.634;9.420;2022-10-26T11:58:34;28.60;;;14.48;;
53269;SDS011;39159;45.634;9.420;2022-10-26T12:01:02;21.70;;;13.23;;
53269;SDS011;39159;45.634;9.420;2022-10-26T12:03:34;27.98;;;15.13;;
53269;SDS011;39159;45.634;9.420;2022-10-26T12:06:07;28.88;;;14.55;;
53269;SDS011;39159;45.634;9.420;2022-10-26T12:08:40;26.95;;;13.05;;
53269;SDS011;39159;45.634;9.420;2022-10-26T12:11:13;29.02;;;13.35;;
53269;SDS011;39159;45.634;9.420;2022-10-26T12:14:15;23.58;;;12.70;;
53269;SDS011;39159;45.634;9.420;2022-10-26T12:21:50;31.25;;;15.98;;
53269;SDS011;39159;45.634;9.420;2022-10-26T12:26:52;25.63;;;13.13;;
53269;SDS011;39159;45.634;9.420;2022-10-26T12:29:31;25.90;;;12.65;;
53269;SDS011;39159;45.634;9.420;2022-10-26T12:31:58;22.20;;;12.77;;
53269;SDS011;39159;45.634;9.420;2022-10-26T12:34:55;24.23;;;13.50;;
53269;SDS011;39159;45.634;9.420;2022-10-26T12:37:20;26.80;;;14.43;;
53269;SDS011;39159;45.634;9.420;2022-10-26T12:39:48;28.35;;;14.98;;
53269;SDS011;39159;45.634;9.420;2022-10-26T12:44:40;29.35;;;15.65;;
53269;SDS011;39159;45.634;9.420;2022-10-26T12:49:57;30.88;;;16.05;;
53269;SDS011;39159;45.634;9.420;2022-10-26T13:00:17;25.45;;;14.18;;
53269;SDS011;39159;45.634;9.420;2022-10-26T13:05:23;27.50;;;16.05;;
53269;SDS011;39159;45.634;9.420;2022-10-26T13:07:51;27.33;;;14.82;;
53269;SDS011;39159;45.634;9.420;2022-10-26T13:10:20;27.85;;;15.18;;
53269;SDS011;39159;45.634;9.420;2022-10-26T13:18:05;29.60;;;14.55;;
53269;SDS011;39159;45.634;9.420;2022-10-26T13:20:31;30.02;;;14.43;;
53269;SDS011;39159;45.634;9.420;2022-10-26T13:23:00;31.13;;;14.93;;
53269;SDS011;39159;45.634;9.420;2022-10-26T13:25:28;30.95;;;14.52;;
53269;SDS011;39159;45.634;9.420;2022-10-26T13:32:58;18.95;;;11.55;;
53269;SDS011;39159;45.634;9.420;2022-10-26T13:35:26;25.38;;;13.43;;
53269;SDS011;39159;45.634;9.420;2022-10-26T13:37:54;24.17;;;14.45;;
53269;SDS011;39159;45.634;9.420;2022-10-26T13:40:22;27.42;;;14.05;;
53269;SDS011;39159;45.634;9.420;2022-10-26T13:42:53;22.55;;;12.55;;
53269;SDS011;39159;45.634;9.420;2022-10-26T13:50:39;20.58;;;11.75;;
53269;SDS011;39159;45.634;9.420;2022-10-26T13:53:20;30.10;;;15.93;;
53269;SDS011;39159;45.634;9.420;2022-10-26T13:55:52;25.42;;;14.38;;
53269;SDS011;39159;45.634;9.420;2022-10-26T13:58:36;23.27;;;14.00;;
53269;SDS011;39159;45.634;9.420;2022-10-26T14:03:38;29.07;;;14.73;;
53269;SDS011;39159;45.634;9.420;2022-10-26T14:08:45;32.90;;;13.07;;
53269;SDS011;39159;45.634;9.420;2022-10-26T14:11:16;23.00;;;12.15;;
53269;SDS011;39159;45.634;9.420;2022-10-26T14:13:45;24.88;;;13.50;;
53269;SDS011;39159;45.634;9.420;2022-10-26T14:16:14;22.25;;;10.90;;
53269;SDS011;39159;45.634;9.420;2022-10-26T14:18:44;29.52;;;14.80;;
53269;SDS011;39159;45.634;9.420;2022-10-26T14:21:20;25.98;;;13.88;;
53269;SDS011;39159;45.634;9.420;2022-10-26T14:23:47;23.02;;;12.88;;
53269;SDS011;39159;45.634;9.420;2022-10-26T14:26:23;31.85;;;13.27;;
53269;SDS011;39159;45.634;9.420;2022-10-26T14:29:02;21.35;;;11.43;;
53269;SDS011;39159;45.634;9.420;2022-10-26T14:31:31;28.02;;;13.52;;
53269;SDS011;39159;45.634;9.420;2022-10-26T14:33:59;18.48;;;10.82;;
53269;SDS011;39159;45.634;9.420;2022-10-26T14:36:32;30.08;;;13.63;;
53269;SDS011;39159;45.634;9.420;2022-10-26T14:39:15;29.10;;;12.85;;
53269;SDS011;39159;45.634;9.420;2022-10-26T14:41:59;25.10;;;12.13;;
53269;SDS011;39159;45.634;9.420;2022-10-26T14:44:30;23.83;;;13.95;;
53269;SDS011;39159;45.634;9.420;2022-10-26T14:46:55;30.27;;;13.15;;
53269;SDS011;39159;45.634;9.420;2022-10-26T14:49:22;28.67;;;14.50;;
53269;SDS011;39159;45.634;9.420;2022-10-26T14:51:55;17.92;;;11.43;;
53269;SDS011;39159;45.634;9.420;2022-10-26T14:54:23;20.27;;;11.23;;
53269;SDS011;39159;45.634;9.420;2022-10-26T14:56:51;19.95;;;13.32;;
53269;SDS011;39159;45.634;9.420;2022-10-26T15:01:55;27.63;;;13.98;;
53269;SDS011;39159;45.634;9.420;2022-10-26T15:05:14;21.73;;;12.23;;
53269;SDS011;39159;45.634;9.420;2022-10-26T15:07:42;31.60;;;13.75;;
53269;SDS011;39159;45.634;9.420;2022-10-26T15:16:07;22.88;;;12.65;;
53269;SDS011;39159;45.634;9.420;2022-10-26T15:18:36;23.45;;;13.55;;
53269;SDS011;39159;45.634;9.420;2022-10-26T15:21:02;29.73;;;14.18;;
53269;SDS011;39159;45.634;9.420;2022-10-26T15:23:45;22.77;;;11.45;;
53269;SDS011;39159;45.634;9.420;2022-10-26T15:26:10;19.92;;;11.18;;
53269;SDS011;39159;45.634;9.420;2022-10-26T15:31:05;21.90;;;11.68;;
53269;SDS011;39159;45.634;9.420;2022-10-26T15:36:17;21.38;;;11.85;;
53269;SDS011;39159;45.634;9.420;2022-10-26T15:38:53;24.25;;;12.80;;
53269;SDS011;39159;45.634;9.420;2022-10-26T15:43:56;18.45;;;11.27;;
53269;SDS011;39159;45.634;9.420;2022-10-26T15:46:28;24.70;;;11.68;;
53269;SDS011;39159;45.634;9.420;2022-10-26T15:48:55;24.83;;;11.73;;
53269;SDS011;39159;45.634;9.420;2022-10-26T15:51:24;24.63;;;12.02;;
53269;SDS011;39159;45.634;9.420;2022-10-26T15:53:50;17.55;;;10.35;;
53269;SDS011;39159;45.634;9.420;2022-10-26T15:56:19;17.60;;;11.07;;
53269;SDS011;39159;45.634;9.420;2022-10-26T15:58:47;18.25;;;10.63;;
53269;SDS011;39159;45.634;9.420;2022-10-26T16:01:14;19.60;;;10.30;;
53269;SDS011;39159;45.634;9.420;2022-10-26T16:03:41;32.45;;;15.20;;
53269;SDS011;39159;45.634;9.420;2022-10-26T16:06:08;26.65;;;12.05;;
53269;SDS011;39159;45.634;9.420;2022-10-26T16:08:39;25.55;;;13.30;;
53269;SDS011;39159;45.634;9.420;2022-10-26T16:11:05;23.08;;;12.10;;
53269;SDS011;39159;45.634;9.420;2022-10-26T16:13:31;24.27;;;11.13;;
53269;SDS011;39159;45.634;9.420;2022-10-26T16:15:56;21.33;;;12.43;;
53269;SDS011;39159;45.634;9.420;2022-10-26T16:18:22;28.42;;;13.90;;
53269;SDS011;39159;45.634;9.420;2022-10-26T16:20:47;26.52;;;12.18;;
53269;SDS011;39159;45.634;9.420;2022-10-26T16:23:13;22.50;;;10.95;;
53269;SDS011;39159;45.634;9.420;2022-10-26T16:25:47;28.77;;;11.93;;
53269;SDS011;39159;45.634;9.420;2022-10-26T16:28:13;23.63;;;11.43;;
53269;SDS011;39159;45.634;9.420;2022-10-26T16:30:42;29.65;;;12.38;;
53269;SDS011;39159;45.634;9.420;2022-10-26T16:33:08;28.13;;;12.48;;
53269;SDS011;39159;45.634;9.420;2022-10-26T16:35:33;26.10;;;12.93;;
53269;SDS011;39159;45.634;9.420;2022-10-26T16:37:59;27.80;;;11.50;;
53269;SDS011;39159;45.634;9.420;2022-10-26T16:40:24;25.33;;;12.77;;
53269;SDS011;39159;45.634;9.420;2022-10-26T16:42:50;20.73;;;11.05;;
53269;SDS011;39159;45.634;9.420;2022-10-26T16:45:16;27.08;;;13.25;;
53269;SDS011;39159;45.634;9.420;2022-10-26T16:47:42;26.63;;;11.95;;
53269;SDS011;39159;45.634;9.420;2022-10-26T16:50:09;24.77;;;13.00;;
53269;SDS011;39159;45.634;9.420;2022-10-26T16:52:36;27.17;;;12.32;;
53269;SDS011;39159;45.634;9.420;2022-10-26T16:55:03;33.85;;;14.77;;
53269;SDS011;39159;45.634;9.420;2022-10-26T16:57:31;25.23;;;13.20;;
53269;SDS011;39159;45.634;9.420;2022-10-26T16:59:57;20.52;;;11.27;;
53269;SDS011;39159;45.634;9.420;2022-10-26T17:02:23;24.55;;;11.27;;
53269;SDS011;39159;45.634;9.420;2022-10-26T17:04:48;26.10;;;12.15;;
53269;SDS011;39159;45.634;9.420;2022-10-26T17:07:14;24.83;;;12.25;;
53269;SDS011;39159;45.634;9.420;2022-10-26T17:09:40;19.48;;;11.65;;
53269;SDS011;39159;45.634;9.420;2022-10-26T17:12:05;20.20;;;12.13;;
53269;SDS011;39159;45.634;9.420;2022-10-26T17:14:31;22.80;;;12.55;;
53269;SDS011;39159;45.634;9.420;2022-10-26T17:16:57;18.65;;;10.60;;
53269;SDS011;39159;45.634;9.420;2022-10-26T17:19:23;21.52;;;12.38;;
53269;SDS011;39159;45.634;9.420;2022-10-26T17:21:49;21.52;;;11.55;;
53269;SDS011;39159;45.634;9.420;2022-10-26T17:24:15;27.50;;;14.07;;